Time;durP1;ratioP1;P1;durP2;ratioP2;P2;SDS_P1;SDS_P2;PMS_P1;PMS_P2;Temp;Humidity;BMP_temperature;BMP_pressure;BME280_temperature;BME280_humidity;BME280_pressure;Samples;Min_cycle;Max_cycle;Signal;HPM_P1;HPM_P2
2022/06/25 00:00:55;;;;;;;;;;;;;;;23.54;64.38;99501.41;2066955;28;20305;-52
2022/06/25 00:01:55;;;;;;;;;;;;;;;23.53;64.24;99506.16;2068557;28;19917;-51
2022/06/25 00:02:56;;;;;;;;;;;;;;;23.54;64.35;99507.69;2067215;28;20647;-48
2022/06/25 00:03:56;;;;;;;;;;;;;;;23.53;64.64;99502.63;2069427;28;19971;-48
2022/06/25 00:06:16;;;;;;;;;;;;;;;23.52;64.33;99493.59;2067299;28;19948;-50
2022/06/25 00:07:16;;;;;;;;;;;;;;;23.53;63.59;99508.16;2069681;28;20371;-51
2022/06/25 00:08:16;;;;;;;;;;;;;;;23.51;64.35;99497.56;2065259;28;20292;-49
2022/06/25 00:09:17;;;;;;;;;;;;;;;23.50;64.22;99503.53;2066150;28;19971;-50
2022/06/25 00:10:17;;;;;;;;;;;;;;;23.51;64.05;99499.56;2069111;28;19956;-50
2022/06/25 00:12:37;;;;;;;;;;;;;;;23.50;63.69;99498.03;2068240;28;19933;-51
2022/06/25 00:13:37;;;;;;;;;;;;;;;23.49;63.62;99500.00;2065687;28;20424;-51
2022/06/25 00:14:38;;;;;;;;;;;;;;;23.50;63.64;99500.78;2069003;28;19924;-52
2022/06/25 00:15:38;;;;;;;;;;;;;;;23.50;63.26;99503.53;2068088;28;19936;-48
2022/06/25 00:16:38;;;;;;;;;;;;;;;23.50;63.56;99493.25;2068326;28;19917;-48
2022/06/25 00:17:39;;;;;;;;;;;;;;;23.50;63.93;99498.78;2068709;28;20003;-48
2022/06/25 00:18:39;;;;;;;;;;;;;;;23.52;64.33;99501.88;2067765;28;20187;-49
2022/06/25 00:19:39;;;;;;;;;;;;;;;23.50;64.46;99495.25;2067750;28;20011;-49
2022/06/25 00:20:40;;;;;;;;;;;;;;;23.50;64.14;99503.53;2067434;28;19968;-52
2022/06/25 00:21:40;;;;;;;;;;;;;;;23.50;64.06;99496.03;2062119;28;19968;-50
2022/06/25 00:22:40;;;;;;;;;;;;;;;23.50;64.24;99492.50;2069320;28;19945;-51
2022/06/25 00:23:40;;;;;;;;;;;;;;;23.50;64.30;99496.03;2068102;28;19971;-49
2022/06/25 00:24:41;;;;;;;;;;;;;;;23.49;64.26;99488.19;2068277;28;19909;-48
2022/06/25 00:25:41;;;;;;;;;;;;;;;23.48;64.58;99490.19;2067568;28;20390;-51
2022/06/25 00:26:42;;;;;;;;;;;;;;;23.49;64.09;99488.94;2068089;28;19917;-49
2022/06/25 00:27:42;;;;;;;;;;;;;;;23.48;63.92;99487.41;2064514;28;19917;-51
2022/06/25 00:28:42;;;;;;;;;;;;;;;23.48;63.88;99486.63;2068290;28;20423;-51
2022/06/25 00:29:43;;;;;;;;;;;;;;;23.47;64.07;99490.66;2066209;28;20031;-49
2022/06/25 00:30:43;;;;;;;;;;;;;;;23.48;63.92;99486.63;2068220;28;19913;-48
2022/06/25 00:31:43;;;;;;;;;;;;;;;23.47;63.98;99485.13;2068560;28;19966;-49
2022/06/25 00:32:46;;;;;;;;;;;;;;;23.47;64.15;99482.38;2066691;28;20017;-51
2022/06/25 00:33:47;;;;;;;;;;;;;;;23.47;64.00;99488.66;2068116;28;19917;-48
2022/06/25 00:34:47;;;;;;;;;;;;;;;23.45;63.86;99485.56;2068107;28;20220;-50
2022/06/25 00:35:48;;;;;;;;;;;;;;;23.47;64.22;99483.13;2068484;28;19917;-49
2022/06/25 00:36:48;;;;;;;;;;;;;;;23.46;64.47;99483.59;2064673;28;20459;-48
2022/06/25 00:37:48;;;;;;;;;;;;;;;23.45;64.51;99491.09;2067992;28;19920;-50
2022/06/25 00:38:49;;;;;;;;;;;;;;;23.47;64.03;99482.38;2067011;28;19955;-51
2022/06/25 00:39:50;;;;;;;;;;;;;;;23.46;64.39;99483.59;2066974;28;19914;-51
2022/06/25 00:40:50;;;;;;;;;;;;;;;23.46;64.12;99484.34;2067389;28;19917;-50
2022/06/25 00:41:50;;;;;;;;;;;;;;;23.45;64.39;99482.81;2066629;28;20292;-52
2022/06/25 00:42:51;;;;;;;;;;;;;;;23.44;64.06;99486.75;2068989;28;20221;-50
2022/06/25 00:43:51;;;;;;;;;;;;;;;23.45;64.27;99480.06;2068474;28;19917;-50
2022/06/25 00:44:53;;;;;;;;;;;;;;;23.43;64.57;99485.22;2063880;28;19974;-51
2022/06/25 00:45:54;;;;;;;;;;;;;;;23.44;64.29;99481.25;2069196;28;20373;-49
2022/06/25 00:46:54;;;;;;;;;;;;;;;23.44;64.27;99480.47;2067228;28;20142;-51
2022/06/25 00:47:54;;;;;;;;;;;;;;;23.44;64.32;99486.00;2069065;28;20270;-52
2022/06/25 00:48:55;;;;;;;;;;;;;;;23.44;64.35;99489.53;2068302;28;19920;-50
2022/06/25 00:49:55;;;;;;;;;;;;;;;23.44;64.10;99486.75;2068450;28;20381;-50
2022/06/25 00:50:58;;;;;;;;;;;;;;;23.42;64.06;99486.44;2067687;28;19921;-49
2022/06/25 00:52:00;;;;;;;;;;;;;;;23.42;63.39;99489.19;2064185;28;19917;-49
2022/06/25 00:53:04;;;;;;;;;;;;;;;23.43;63.29;99490.75;2067443;28;20331;-50
2022/06/25 00:54:05;;;;;;;;;;;;;;;23.42;63.16;99486.44;2067587;28;20316;-51
2022/06/25 00:55:10;;;;;;;;;;;;;;;23.44;63.29;99481.25;2066377;28;20238;-53
2022/06/25 00:56:11;;;;;;;;;;;;;;;23.43;63.42;99482.47;2068627;28;20740;-50
2022/06/25 00:57:13;;;;;;;;;;;;;;;23.42;63.31;99482.94;2068785;28;19921;-50
2022/06/25 00:58:14;;;;;;;;;;;;;;;23.44;63.41;99489.53;2067537;28;20110;-51
2022/06/25 00:59:18;;;;;;;;;;;;;;;23.42;63.45;99483.69;2068688;28;19917;-49
2022/06/25 01:00:18;;;;;;;;;;;;;;;23.43;63.46;99484.44;2064403;28;19913;-52
2022/06/25 01:01:19;;;;;;;;;;;;;;;23.43;63.50;99479.69;2068170;28;19964;-51
2022/06/25 01:02:22;;;;;;;;;;;;;;;23.43;63.54;99485.22;2068872;28;20707;-52
2022/06/25 01:03:25;;;;;;;;;;;;;;;23.42;63.44;99480.91;2065893;28;19924;-49
2022/06/25 01:04:25;;;;;;;;;;;;;;;23.43;63.48;99482.47;2066039;28;19943;-51
2022/06/25 01:05:25;;;;;;;;;;;;;;;23.41;63.43;99476.63;2066051;28;19991;-50
2022/06/25 01:06:28;;;;;;;;;;;;;;;23.42;63.56;99478.16;2067067;28;21014;-50
2022/06/25 01:07:28;;;;;;;;;;;;;;;23.41;63.58;99475.88;2067887;28;19917;-50
2022/06/25 01:08:29;;;;;;;;;;;;;;;23.41;63.83;99473.09;2067453;28;19921;-49
2022/06/25 01:09:29;;;;;;;;;;;;;;;23.40;64.15;99468.78;2067367;28;20608;-49
2022/06/25 01:10:30;;;;;;;;;;;;;;;23.40;64.08;99466.81;2065369;28;19921;-48
2022/06/25 01:11:30;;;;;;;;;;;;;;;23.39;62.95;99470.78;2065439;28;20762;-49
2022/06/25 01:12:30;;;;;;;;;;;;;;;23.38;63.12;99466.47;2067251;28;20273;-48
2022/06/25 01:13:31;;;;;;;;;;;;;;;23.39;63.55;99468.03;2066842;28;19917;-51
2022/06/25 01:14:31;;;;;;;;;;;;;;;23.38;63.52;99458.19;2067848;28;20342;-51
2022/06/25 01:15:32;;;;;;;;;;;;;;;23.37;63.83;99464.94;2068099;28;19924;-50
2022/06/25 01:16:33;;;;;;;;;;;;;;;23.36;63.79;99457.91;2065475;28;19921;-52
2022/06/25 01:17:44;;;;;;;;;;;;;;;23.35;63.35;99455.59;2065289;28;19963;-48
2022/06/25 01:18:44;;;;;;;;;;;;;;;23.35;63.27;99456.34;2064473;28;19932;-50
2022/06/25 01:19:45;;;;;;;;;;;;;;;23.34;63.52;99454.81;2066393;28;20227;-50
2022/06/25 01:20:46;;;;;;;;;;;;;;;23.35;62.96;99455.59;2067637;28;19924;-51
2022/06/25 01:21:46;;;;;;;;;;;;;;;23.35;63.38;99452.81;2067360;28;19933;-52
2022/06/25 01:22:47;;;;;;;;;;;;;;;23.36;63.51;99457.13;2066587;28;20197;-52
2022/06/25 01:23:47;;;;;;;;;;;;;;;23.36;62.68;99455.13;2064720;28;19914;-49
2022/06/25 01:24:48;;;;;;;;;;;;;;;23.34;62.69;99460.34;2068601;28;20359;-50
2022/06/25 01:25:48;;;;;;;;;;;;;;;23.34;62.55;99451.28;2067188;28;19909;-50
2022/06/25 01:26:49;;;;;;;;;;;;;;;23.32;62.96;99448.97;2065214;28;20012;-49
2022/06/25 01:27:49;;;;;;;;;;;;;;;23.33;62.82;99447.75;2064012;28;20098;-49
2022/06/25 01:28:49;;;;;;;;;;;;;;;23.32;62.20;99446.19;2065567;28;20422;-51
2022/06/25 01:29:50;;;;;;;;;;;;;;;23.32;62.63;99446.19;2066613;28;19917;-52
2022/06/25 01:30:50;;;;;;;;;;;;;;;23.31;63.16;99444.69;2069577;28;20278;-50
2022/06/25 01:31:51;;;;;;;;;;;;;;;23.32;63.33;99451.72;2067162;28;19913;-49
2022/06/25 01:32:52;;;;;;;;;;;;;;;23.34;63.38;99446.53;2070927;28;20315;-51
2022/06/25 01:33:53;;;;;;;;;;;;;;;23.33;63.18;99450.50;2063585;28;19921;-50
2022/06/25 01:34:53;;;;;;;;;;;;;;;23.34;63.18;99451.28;2065479;28;20282;-51
2022/06/25 01:35:54;;;;;;;;;;;;;;;23.33;63.33;99442.22;2070790;28;19976;-49
2022/06/25 01:36:54;;;;;;;;;;;;;;;23.32;63.10;99437.91;2058376;28;20053;-51
2022/06/25 01:37:54;;;;;;;;;;;;;;;23.31;63.55;99443.91;2066160;28;20820;-49
2022/06/25 01:38:55;;;;;;;;;;;;;;;23.31;63.30;99439.16;2070117;28;20395;-49
2022/06/25 01:39:56;;;;;;;;;;;;;;;23.31;63.80;99441.91;2069803;28;20129;-48
2022/06/25 01:40:56;;;;;;;;;;;;;;;23.31;63.77;99439.16;2067997;28;20221;-51
2022/06/25 01:41:56;;;;;;;;;;;;;;;23.31;63.77;99435.63;2065104;28;20294;-49
2022/06/25 01:43:00;;;;;;;;;;;;;;;23.31;63.67;99433.63;2069798;28;20279;-48
2022/06/25 01:44:00;;;;;;;;;;;;;;;23.31;63.26;99433.63;2068697;28;20004;-50
2022/06/25 01:45:00;;;;;;;;;;;;;;;23.29;63.77;99436.06;2068159;28;20016;-52
2022/06/25 01:46:00;;;;;;;;;;;;;;;23.30;63.05;99437.63;2070373;28;19926;-49
2022/06/25 01:47:01;;;;;;;;;;;;;;;23.30;62.70;99429.31;2068119;28;19991;-50
2022/06/25 01:48:02;;;;;;;;;;;;;;;23.30;62.25;99428.56;2069717;28;19924;-51
2022/06/25 01:49:02;;;;;;;;;;;;;;;23.28;62.26;99426.25;2069180;28;19917;-49
2022/06/25 01:50:03;;;;;;;;;;;;;;;23.27;62.96;99438.50;2068887;28;20014;-50
2022/06/25 01:51:03;;;;;;;;;;;;;;;23.30;63.45;99434.09;2069980;28;19924;-49
2022/06/25 01:52:04;;;;;;;;;;;;;;;23.29;63.61;99435.31;2068902;28;19970;-49
2022/06/25 01:53:05;;;;;;;;;;;;;;;23.28;63.70;99434.53;2069325;28;19976;-48
2022/06/25 01:54:05;;;;;;;;;;;;;;;23.30;63.26;99434.84;2068815;28;19920;-51
2022/06/25 01:55:06;;;;;;;;;;;;;;;23.28;63.01;99434.53;2069247;28;19956;-48
2022/06/25 01:56:07;;;;;;;;;;;;;;;23.28;63.08;99431.78;2068153;28;19921;-50
2022/06/25 01:57:08;;;;;;;;;;;;;;;23.27;63.24;99427.47;2061228;28;19917;-51
2022/06/25 01:58:08;;;;;;;;;;;;;;;23.27;63.30;99438.50;2067824;28;20252;-50
2022/06/25 01:59:08;;;;;;;;;;;;;;;23.28;63.66;99426.25;2071500;28;19921;-49
2022/06/25 02:00:11;;;;;;;;;;;;;;;23.26;63.10;99425.94;2068203;28;20004;-50
2022/06/25 02:01:11;;;;;;;;;;;;;;;23.26;63.22;99430.69;2068496;28;20730;-51
2022/06/25 02:02:11;;;;;;;;;;;;;;;23.27;62.82;99430.22;2070299;28;20122;-50
2022/06/25 02:03:13;;;;;;;;;;;;;;;23.26;62.91;99430.69;2069348;28;20161;-48
2022/06/25 02:04:13;;;;;;;;;;;;;;;23.24;63.27;99428.38;2067805;28;19917;-48
2022/06/25 02:05:15;;;;;;;;;;;;;;;23.24;63.70;99428.38;2070223;28;20425;-48
2022/06/25 02:06:16;;;;;;;;;;;;;;;23.24;63.56;99430.38;2066723;28;19968;-51
2022/06/25 02:07:16;;;;;;;;;;;;;;;23.24;63.63;99422.09;2070153;28;20267;-49
2022/06/25 02:08:17;;;;;;;;;;;;;;;23.24;63.70;99428.38;2067947;28;19967;-48
2022/06/25 02:09:18;;;;;;;;;;;;;;;23.24;63.82;99420.09;2067799;28;19917;-51
2022/06/25 02:10:18;;;;;;;;;;;;;;;23.24;63.76;99417.34;2070051;28;19927;-52
2022/06/25 02:11:18;;;;;;;;;;;;;;;23.23;63.69;99410.28;2068707;28;19960;-51
2022/06/25 02:12:19;;;;;;;;;;;;;;;23.24;63.52;99409.06;2068336;28;20360;-51
2022/06/25 02:13:19;;;;;;;;;;;;;;;23.25;63.23;99412.59;2068552;28;20035;-49
2022/06/25 02:14:20;;;;;;;;;;;;;;;23.25;62.36;99410.59;2069240;28;19917;-48
2022/06/25 02:15:20;;;;;;;;;;;;;;;23.22;62.92;99403.19;2070081;28;19953;-49
2022/06/25 02:16:20;;;;;;;;;;;;;;;23.24;62.67;99403.53;2069012;28;19949;-50
2022/06/25 02:17:21;;;;;;;;;;;;;;;23.22;62.68;99392.16;2067668;28;19913;-50
2022/06/25 02:18:22;;;;;;;;;;;;;;;23.23;62.98;99388.16;2066657;28;19924;-51
2022/06/25 02:19:22;;;;;;;;;;;;;;;23.22;63.06;99391.38;2068651;28;20000;-49
2022/06/25 02:20:22;;;;;;;;;;;;;;;23.22;63.16;99383.88;2069823;28;20569;-48
2022/06/25 02:21:23;;;;;;;;;;;;;;;23.23;63.00;99381.88;2068841;28;20129;-48
2022/06/25 02:22:23;;;;;;;;;;;;;;;23.22;63.26;99380.34;2069685;28;20043;-50
2022/06/25 02:23:23;;;;;;;;;;;;;;;23.22;63.23;99377.56;2068600;28;19917;-52
2022/06/25 02:24:24;;;;;;;;;;;;;;;23.21;62.88;99384.34;2069990;28;19917;-50
2022/06/25 02:25:24;;;;;;;;;;;;;;;23.22;62.87;99380.34;2066903;28;19917;-52
2022/06/25 02:26:25;;;;;;;;;;;;;;;23.20;62.79;99383.56;2068813;28;19909;-49
2022/06/25 02:27:25;;;;;;;;;;;;;;;23.21;62.86;99381.59;2069229;28;19960;-49
2022/06/25 02:28:25;;;;;;;;;;;;;;;23.22;62.61;99381.09;2067962;28;20036;-49
2022/06/25 02:29:26;;;;;;;;;;;;;;;23.21;62.43;99374.06;2066005;28;20014;-51
2022/06/25 02:30:26;;;;;;;;;;;;;;;23.21;62.49;99376.81;2069970;28;19921;-49
2022/06/25 02:31:27;;;;;;;;;;;;;;;23.21;62.76;99381.59;2066908;28;19917;-51
2022/06/25 02:32:29;;;;;;;;;;;;;;;23.18;63.22;99374.97;2069065;28;19965;-53
2022/06/25 02:33:30;;;;;;;;;;;;;;;23.20;63.52;99382.81;2068723;28;20336;-49
2022/06/25 02:34:31;;;;;;;;;;;;;;;23.20;63.49;99380.03;2066923;28;19913;-48
2022/06/25 02:35:31;;;;;;;;;;;;;;;23.19;63.27;99389.53;2070173;28;19923;-50
2022/06/25 02:36:31;;;;;;;;;;;;;;;23.19;63.16;99384.78;2069046;28;20370;-49
2022/06/25 02:37:32;;;;;;;;;;;;;;;23.17;62.81;99379.72;2069104;28;20574;-51
2022/06/25 02:38:32;;;;;;;;;;;;;;;23.16;63.19;99383.69;2067528;28;19924;-49
2022/06/25 02:39:32;;;;;;;;;;;;;;;23.17;63.35;99382.47;2067942;28;19921;-49
2022/06/25 02:40:33;;;;;;;;;;;;;;;23.18;62.32;99380.50;2068927;28;19924;-50
2022/06/25 02:41:33;;;;;;;;;;;;;;;23.17;62.21;99376.19;2067402;28;20366;-49
2022/06/25 02:42:35;;;;;;;;;;;;;;;23.16;62.08;99371.88;2069046;28;19913;-51
2022/06/25 02:43:36;;;;;;;;;;;;;;;23.17;62.08;99378.94;2065712;28;20190;-51
2022/06/25 02:44:36;;;;;;;;;;;;;;;23.15;62.57;99370.38;2067526;28;20033;-51
2022/06/25 02:45:36;;;;;;;;;;;;;;;23.14;63.01;99375.13;2069777;28;19921;-49
2022/06/25 02:46:36;;;;;;;;;;;;;;;23.15;63.15;99375.91;2066840;28;19959;-51
2022/06/25 02:47:37;;;;;;;;;;;;;;;23.16;62.92;99371.88;2069649;28;19917;-50
2022/06/25 02:48:37;;;;;;;;;;;;;;;23.15;62.84;99375.91;2067251;28;19936;-48
2022/06/25 02:49:37;;;;;;;;;;;;;;;23.14;62.73;99374.34;2070152;28;19979;-52
2022/06/25 02:50:38;;;;;;;;;;;;;;;23.14;62.66;99375.13;2068204;28;20666;-50
2022/06/25 02:51:38;;;;;;;;;;;;;;;23.16;62.89;99375.41;2067957;28;20144;-52
2022/06/25 02:52:38;;;;;;;;;;;;;;;23.16;63.00;99366.34;2069432;28;19917;-49
2022/06/25 02:53:38;;;;;;;;;;;;;;;23.15;62.97;99364.84;2069232;28;20704;-52
2022/06/25 02:54:39;;;;;;;;;;;;;;;23.15;63.05;99360.09;2068583;28;20405;-49
2022/06/25 02:59:36;;;;;;;;;;;;;;;23.11;63.18;99348.41;2066571;28;19921;-51
2022/06/25 03:00:36;;;;;;;;;;;;;;;23.12;63.16;99349.16;2070079;28;19964;-50
2022/06/25 03:01:37;;;;;;;;;;;;;;;23.11;63.45;99347.63;2065602;28;19963;-51
2022/06/25 03:02:37;;;;;;;;;;;;;;;23.12;63.17;99340.88;2070324;28;20302;-49
2022/06/25 03:03:37;;;;;;;;;;;;;;;23.12;63.26;99346.41;2068437;28;19928;-50
2022/06/25 03:04:37;;;;;;;;;;;;;;;23.11;62.99;99342.09;2067277;28;20301;-51
2022/06/25 03:05:38;;;;;;;;;;;;;;;23.10;63.22;99338.59;2068934;28;19924;-52
2022/06/25 03:06:38;;;;;;;;;;;;;;;23.11;63.34;99331.06;2063648;28;20024;-48
2022/06/25 03:07:39;;;;;;;;;;;;;;;23.12;63.24;99329.84;2067590;28;19917;-50
2022/06/25 03:08:39;;;;;;;;;;;;;;;23.10;63.25;99319.25;2068956;28;19929;-48
2022/06/25 03:09:40;;;;;;;;;;;;;;;23.09;63.20;99328.78;2067115;28;20006;-49
2022/06/25 03:10:40;;;;;;;;;;;;;;;23.11;63.13;99331.81;2065891;28;19925;-51
2022/06/25 03:11:41;;;;;;;;;;;;;;;23.11;63.27;99334.59;2064064;28;19923;-52
2022/06/25 03:12:41;;;;;;;;;;;;;;;23.10;63.37;99335.06;2066507;28;20275;-49
2022/06/25 03:13:42;;;;;;;;;;;;;;;23.09;63.20;99325.25;2064874;28;20668;-49
2022/06/25 03:14:42;;;;;;;;;;;;;;;23.09;63.22;99322.47;2066071;28;19995;-48
2022/06/25 03:15:42;;;;;;;;;;;;;;;23.09;62.83;99325.25;2062610;28;20106;-49
2022/06/25 03:16:43;;;;;;;;;;;;;;;23.09;63.06;99323.25;2068963;28;19917;-48
2022/06/25 03:17:43;;;;;;;;;;;;;;;23.07;62.96;99320.16;2068378;28;19917;-48
2022/06/25 03:18:43;;;;;;;;;;;;;;;23.10;62.95;99318.50;2061526;28;19909;-49
2022/06/25 03:19:44;;;;;;;;;;;;;;;23.08;63.06;99320.94;2064944;28;19917;-48
2022/06/25 03:20:44;;;;;;;;;;;;;;;23.07;63.38;99319.41;2063470;28;19924;-48
2022/06/25 03:21:46;;;;;;;;;;;;;;;23.06;62.91;99313.09;2066405;28;19924;-48
2022/06/25 03:22:46;;;;;;;;;;;;;;;23.07;62.90;99319.41;2068359;28;20470;-49
2022/06/25 03:23:46;;;;;;;;;;;;;;;23.08;62.51;99307.13;2069232;28;20032;-52
2022/06/25 03:24:47;;;;;;;;;;;;;;;23.08;62.65;99318.16;2067563;28;19909;-50
2022/06/25 03:25:47;;;;;;;;;;;;;;;23.06;62.59;99313.09;2068679;28;20275;-52
2022/06/25 03:26:48;;;;;;;;;;;;;;;23.07;62.62;99313.88;2065524;28;20031;-52
2022/06/25 03:27:48;;;;;;;;;;;;;;;23.06;62.56;99307.56;2068079;28;19909;-52
2022/06/25 03:28:49;;;;;;;;;;;;;;;23.07;62.96;99302.81;2068636;28;19913;-51
2022/06/25 03:29:49;;;;;;;;;;;;;;;23.05;62.81;99305.28;2062810;28;19925;-50
2022/06/25 03:30:49;;;;;;;;;;;;;;;23.05;62.74;99294.25;2068329;28;20045;-52
2022/06/25 03:31:50;;;;;;;;;;;;;;;23.05;63.14;99297.75;2068558;28;19917;-52
2022/06/25 03:32:50;;;;;;;;;;;;;;;23.07;63.25;99297.31;2068017;28;20262;-49
2022/06/25 03:33:51;;;;;;;;;;;;;;;23.04;63.08;99299.00;2068654;28;19917;-50
2022/06/25 03:34:51;;;;;;;;;;;;;;;23.05;62.89;99299.78;2061582;28;19921;-50
2022/06/25 03:35:51;;;;;;;;;;;;;;;23.03;62.80;99296.69;2068629;28;19963;-48
2022/06/25 03:36:52;;;;;;;;;;;;;;;23.04;63.03;99301.00;2067475;28;19917;-51
2022/06/25 03:37:52;;;;;;;;;;;;;;;23.03;62.80;99302.22;2063946;28;20167;-49
2022/06/25 03:38:52;;;;;;;;;;;;;;;23.06;62.70;99295.75;2065116;28;20275;-50
2022/06/25 03:39:53;;;;;;;;;;;;;;;23.04;62.58;99290.72;2068000;28;19999;-50
2022/06/25 03:42:12;;;;;;;;;;;;;;;23.06;62.44;99301.28;2069431;28;20331;-49
2022/06/25 03:43:13;;;;;;;;;;;;;;;23.06;62.28;99293.00;2067680;28;20385;-50
2022/06/25 03:44:13;;;;;;;;;;;;;;;23.07;62.05;99292.53;2064687;28;19917;-51
2022/06/25 03:45:14;;;;;;;;;;;;;;;23.07;61.96;99291.78;2062660;28;19924;-49
2022/06/25 03:46:15;;;;;;;;;;;;;;;23.07;62.21;99298.06;2064507;28;19964;-52
2022/06/25 03:47:15;;;;;;;;;;;;;;;23.06;62.14;99295.75;2067915;28;20378;-50
2022/06/25 03:48:15;;;;;;;;;;;;;;;23.05;62.37;99300.50;2068967;28;20083;-49
2022/06/25 03:49:15;;;;;;;;;;;;;;;23.05;62.49;99294.25;2066658;28;19925;-48
2022/06/25 03:50:17;;;;;;;;;;;;;;;23.03;62.77;99293.94;2068552;28;19917;-49
2022/06/25 03:51:17;;;;;;;;;;;;;;;23.03;62.66;99302.97;2068747;28;19917;-51
2022/06/25 03:52:18;;;;;;;;;;;;;;;23.04;62.31;99290.72;2066643;28;19920;-49
2022/06/25 03:53:18;;;;;;;;;;;;;;;23.06;62.12;99284.72;2069251;28;19906;-52
2022/06/25 03:54:18;;;;;;;;;;;;;;;23.07;62.01;99291.78;2066768;28;19905;-49
2022/06/25 03:55:19;;;;;;;;;;;;;;;23.06;62.10;99291.00;2064981;28;19905;-51
2022/06/25 03:56:19;;;;;;;;;;;;;;;23.05;62.10;99288.72;2068002;28;19921;-52
2022/06/25 03:57:20;;;;;;;;;;;;;;;23.06;62.20;99295.75;2069047;28;19935;-52
2022/06/25 03:58:20;;;;;;;;;;;;;;;23.04;62.22;99292.72;2068390;28;19959;-50
2022/06/25 03:59:20;;;;;;;;;;;;;;;23.03;62.43;99278.13;2069566;28;20161;-51
2022/06/25 04:00:21;;;;;;;;;;;;;;;23.02;62.46;99281.34;2069323;28;20011;-50
2022/06/25 04:01:23;;;;;;;;;;;;;;;23.02;62.27;99284.09;2068089;28;19917;-52
2022/06/25 04:02:23;;;;;;;;;;;;;;;23.03;62.49;99280.88;2064109;28;19947;-48
2022/06/25 04:03:23;;;;;;;;;;;;;;;23.03;62.59;99277.34;2069760;28;20392;-50
2022/06/25 04:04:24;;;;;;;;;;;;;;;23.02;62.34;99282.09;2067381;28;19921;-50
2022/06/25 04:05:24;;;;;;;;;;;;;;;23.02;62.44;99282.09;2063578;28;19956;-50
2022/06/25 04:06:25;;;;;;;;;;;;;;;23.03;62.49;99280.88;2068133;28;20041;-51
2022/06/25 04:07:25;;;;;;;;;;;;;;;23.02;62.97;99289.63;2066225;28;20372;-51
2022/06/25 04:08:25;;;;;;;;;;;;;;;23.00;62.80;99283.81;2065521;28;19971;-52
2022/06/25 04:09:26;;;;;;;;;;;;;;;22.99;62.57;99285.81;2067620;28;20067;-51
2022/06/25 04:10:26;;;;;;;;;;;;;;;23.01;62.41;99282.56;2069140;28;19917;-52
2022/06/25 04:11:26;;;;;;;;;;;;;;;23.00;62.37;99289.34;2064826;28;19996;-51
2022/06/25 04:12:27;;;;;;;;;;;;;;;23.00;62.32;99284.56;2064682;28;20816;-50
2022/06/25 04:13:27;;;;;;;;;;;;;;;23.01;62.19;99280.56;2062349;28;20109;-49
2022/06/25 04:14:28;;;;;;;;;;;;;;;23.02;62.09;99282.09;2066831;28;20207;-48
2022/06/25 04:15:28;;;;;;;;;;;;;;;23.01;62.04;99286.09;2066902;28;19909;-48
2022/06/25 04:16:28;;;;;;;;;;;;;;;23.01;62.02;99283.34;2069665;28;20381;-49
2022/06/25 04:17:29;;;;;;;;;;;;;;;23.02;61.92;99289.63;2068180;28;19921;-48
2022/06/25 04:18:31;;;;;;;;;;;;;;;23.03;61.94;99280.13;2069042;28;20319;-51
2022/06/25 04:19:39;;;;;;;;;;;;;;;23.05;61.82;99283.19;2067535;28;20377;-51
2022/06/25 04:20:41;;;;;;;;;;;;;;;23.03;62.01;99277.34;2066757;28;19957;-50
2022/06/25 04:21:47;;;;;;;;;;;;;;;23.01;62.21;99277.03;2069074;28;19921;-50
2022/06/25 04:22:47;;;;;;;;;;;;;;;23.00;62.59;99275.53;2067890;28;20435;-52
2022/06/25 04:23:48;;;;;;;;;;;;;;;22.99;62.45;99279.50;2067712;28;19925;-51
2022/06/25 04:24:48;;;;;;;;;;;;;;;22.99;62.23;99274.00;2068408;28;19917;-49
2022/06/25 04:25:48;;;;;;;;;;;;;;;22.96;62.46;99269.38;2067801;28;20277;-51
2022/06/25 04:26:49;;;;;;;;;;;;;;;23.01;62.08;99279.81;2067409;28;19979;-50
2022/06/25 04:29:08;;;;;;;;;;;;;;;22.99;62.25;99265.69;2064924;28;20012;-52
2022/06/25 04:30:08;;;;;;;;;;;;;;;22.99;61.98;99269.22;2068333;28;19917;-49
2022/06/25 04:31:09;;;;;;;;;;;;;;;23.01;61.90;99271.50;2066835;28;20329;-49
2022/06/25 04:32:09;;;;;;;;;;;;;;;22.99;62.05;99262.94;2067006;28;19909;-50
2022/06/25 04:33:09;;;;;;;;;;;;;;;23.01;61.91;99263.22;2069274;28;20381;-51
2022/06/25 04:34:10;;;;;;;;;;;;;;;22.99;62.22;99269.22;2064958;28;19917;-52
2022/06/25 04:35:10;;;;;;;;;;;;;;;22.99;62.13;99268.47;2069785;28;20283;-52
2022/06/25 04:36:11;;;;;;;;;;;;;;;23.00;61.94;99261.72;2066170;28;19940;-52
2022/06/25 04:37:11;;;;;;;;;;;;;;;22.99;61.92;99263.72;2068215;28;20114;-49
2022/06/25 04:38:11;;;;;;;;;;;;;;;22.97;62.41;99266.16;2067693;28;19975;-51
2022/06/25 04:39:12;;;;;;;;;;;;;;;22.94;62.43;99253.28;2067391;28;20516;-52
2022/06/25 04:40:12;;;;;;;;;;;;;;;22.96;62.29;99267.38;2067703;28;19920;-51
2022/06/25 04:41:12;;;;;;;;;;;;;;;22.95;62.31;99262.31;2068926;28;19909;-49
2022/06/25 04:42:13;;;;;;;;;;;;;;;22.95;62.24;99267.81;2066449;28;19917;-49
2022/06/25 04:43:13;;;;;;;;;;;;;;;22.95;61.87;99265.06;2069092;28;19959;-49
2022/06/25 04:44:15;;;;;;;;;;;;;;;22.96;61.97;99266.59;2066994;28;19923;-51
2022/06/25 04:45:15;;;;;;;;;;;;;;;22.98;62.00;99266.94;2068109;28;19971;-50
2022/06/25 04:46:15;;;;;;;;;;;;;;;22.96;62.00;99263.84;2070049;28;19925;-51
2022/06/25 04:47:16;;;;;;;;;;;;;;;22.96;61.92;99269.38;2069889;28;21052;-51
2022/06/25 04:48:16;;;;;;;;;;;;;;;22.96;61.92;99266.59;2068318;28;19909;-47
2022/06/25 04:49:16;;;;;;;;;;;;;;;22.94;61.99;99267.09;2068223;28;20221;-50
2022/06/25 04:50:17;;;;;;;;;;;;;;;22.95;62.13;99267.81;2067631;28;20033;-49
2022/06/25 04:51:17;;;;;;;;;;;;;;;22.93;62.26;99275.81;2060324;28;20415;-48
2022/06/25 04:52:17;;;;;;;;;;;;;;;22.93;62.14;99275.81;2067488;28;19910;-52
2022/06/25 04:53:17;;;;;;;;;;;;;;;22.93;62.04;99282.09;2067701;28;20073;-51
2022/06/25 04:54:18;;;;;;;;;;;;;;;22.95;61.86;99284.38;2065515;28;20113;-48
2022/06/25 04:55:19;;;;;;;;;;;;;;;22.95;61.96;99279.63;2067246;28;19917;-49
2022/06/25 04:56:19;;;;;;;;;;;;;;;22.93;62.36;99281.34;2065261;28;19944;-49
2022/06/25 04:57:20;;;;;;;;;;;;;;;22.92;62.52;99277.03;2069121;28;19976;-48
2022/06/25 04:58:20;;;;;;;;;;;;;;;22.89;62.72;99283.47;2066503;28;19921;-48
2022/06/25 04:59:20;;;;;;;;;;;;;;;22.91;62.67;99278.25;2066759;28;20013;-51
2022/06/25 05:00:21;;;;;;;;;;;;;;;22.90;62.69;99277.50;2068560;28;19917;-52
2022/06/25 05:01:21;;;;;;;;;;;;;;;22.93;62.31;99275.81;2065331;28;19924;-50
2022/06/25 05:02:22;;;;;;;;;;;;;;;22.94;62.02;99283.66;2068745;28;20235;-52
2022/06/25 05:03:22;;;;;;;;;;;;;;;22.93;62.18;99275.81;2068404;28;19927;-52
2022/06/25 05:04:22;;;;;;;;;;;;;;;22.91;62.36;99278.25;2067061;28;20529;-50
2022/06/25 05:05:23;;;;;;;;;;;;;;;22.91;62.30;99278.25;2068009;28;20310;-52
2022/06/25 05:06:23;;;;;;;;;;;;;;;22.91;62.28;99278.25;2067979;28;19936;-50
2022/06/25 05:07:23;;;;;;;;;;;;;;;22.91;62.30;99270.75;2069693;28;19917;-52
2022/06/25 05:08:24;;;;;;;;;;;;;;;22.92;62.04;99268.75;2067570;28;19917;-50
2022/06/25 05:09:25;;;;;;;;;;;;;;;22.92;62.21;99271.50;2069072;28;19919;-51
2022/06/25 05:10:26;;;;;;;;;;;;;;;22.91;62.08;99272.72;2069601;28;19989;-49
2022/06/25 05:11:26;;;;;;;;;;;;;;;22.92;62.22;99268.75;2071288;28;19924;-48
2022/06/25 05:13:46;;;;;;;;;;;;;;;22.89;62.14;99264.94;2064405;28;19996;-49
2022/06/25 05:14:46;;;;;;;;;;;;;;;22.90;62.28;99276.72;2068430;28;19925;-51
2022/06/25 05:15:47;;;;;;;;;;;;;;;22.91;62.46;99275.50;2069392;28;19983;-51
2022/06/25 05:16:47;;;;;;;;;;;;;;;22.88;62.84;99270.91;2061778;28;20331;-51
2022/06/25 05:17:48;;;;;;;;;;;;;;;22.86;62.80;99270.59;2066538;28;20172;-51
2022/06/25 05:18:48;;;;;;;;;;;;;;;22.85;63.10;99274.56;2067281;28;19996;-51
2022/06/25 05:19:48;;;;;;;;;;;;;;;22.88;62.26;99268.13;2063373;28;19924;-49
2022/06/25 05:20:49;;;;;;;;;;;;;;;22.87;62.60;99266.59;2069671;28;20361;-49
2022/06/25 05:21:49;;;;;;;;;;;;;;;22.87;62.58;99261.84;2068618;28;19917;-50
2022/06/25 05:22:50;;;;;;;;;;;;;;;22.85;62.55;99263.50;2070635;28;20338;-48
2022/06/25 05:23:50;;;;;;;;;;;;;;;22.87;62.46;99258.31;2067674;28;19960;-52
2022/06/25 05:24:51;;;;;;;;;;;;;;;22.88;62.15;99259.84;2067217;28;20510;-48
2022/06/25 05:25:51;;;;;;;;;;;;;;;22.89;62.07;99256.66;2068823;28;19986;-52
2022/06/25 05:26:51;;;;;;;;;;;;;;;22.88;62.45;99254.34;2068261;28;19913;-49